createdAt,value
2023-02-17T00:00:01.439Z,102004.66
2023-02-17T00:05:23.870Z,101997.66
2023-02-17T00:10:45.865Z,102017.25
2023-02-17T00:16:19.402Z,102002.78
2023-02-17T00:21:41.203Z,102003.22
2023-02-17T00:27:03.073Z,102003.66
2023-02-17T00:32:24.886Z,102002.81
2023-02-17T00:37:46.737Z,101975.31
2023-02-17T00:43:08.539Z,101959.16
2023-02-17T00:48:31.433Z,101947.44
2023-02-17T00:53:53.260Z,101955.09
2023-02-17T00:59:15.200Z,101945.50
2023-02-17T01:04:37.024Z,101955.94
2023-02-17T01:09:58.985Z,101964.47
2023-02-17T01:15:20.731Z,101959.38
2023-02-17T01:20:43.706Z,101954.69
2023-02-17T01:26:05.820Z,101950.22
2023-02-17T01:31:28.412Z,101943.41
2023-02-17T01:36:50.243Z,101941.94
2023-02-17T01:42:22.474Z,101940.00
2023-02-17T01:47:58.732Z,101953.22
2023-02-17T01:53:33.169Z,101941.53
2023-02-17T01:59:03.095Z,101948.13
2023-02-17T02:04:28.682Z,101949.63
2023-02-17T02:09:54.916Z,101958.38
2023-02-17T02:15:32.159Z,101949.84
2023-02-17T02:20:57.431Z,101953.06
2023-02-17T02:26:37.608Z,101973.72
2023-02-17T02:32:17.460Z,101950.53
2023-02-17T02:37:53.828Z,101930.50
2023-02-17T02:43:16.569Z,101929.63
2023-02-17T02:48:39.480Z,101921.56
2023-02-17T02:54:18.518Z,101913.00
2023-02-17T02:59:42.979Z,101907.94
2023-02-17T03:05:10.023Z,101897.06
2023-02-17T03:10:31.946Z,101894.53
2023-02-17T03:15:53.744Z,101893.66
2023-02-17T03:21:17.432Z,101903.03
2023-02-17T03:26:39.225Z,101896.88
2023-02-17T03:32:01.456Z,101892.41
2023-02-17T03:37:23.297Z,101893.25
2023-02-17T03:42:45.069Z,101889.00
2023-02-17T03:48:06.886Z,101882.81
2023-02-17T03:53:28.633Z,101868.34
2023-02-17T03:58:50.474Z,101875.81
2023-02-17T04:04:12.361Z,101884.97
2023-02-17T04:09:34.160Z,101890.50
2023-02-17T04:14:55.887Z,101892.63
2023-02-17T04:20:17.879Z,101892.03
2023-02-17T04:25:39.701Z,101890.31
2023-02-17T04:31:01.580Z,101884.16
2023-02-17T04:36:23.497Z,101886.03
2023-02-17T04:41:45.221Z,101890.75
2023-02-17T04:47:06.963Z,101899.88
2023-02-17T04:52:28.761Z,101902.88
2023-02-17T04:57:50.562Z,101890.09
2023-02-17T05:03:12.338Z,101897.56
2023-02-17T05:08:34.146Z,101905.88
2023-02-17T05:13:56.008Z,101892.22
2023-02-17T05:19:17.752Z,101905.44
2023-02-17T05:24:39.489Z,101888.63
2023-02-17T05:30:01.482Z,101882.47
2023-02-17T05:35:23.539Z,101881.59
2023-02-17T05:40:45.324Z,101878.81
2023-02-17T05:46:07.730Z,101889.06
2023-02-17T05:51:29.823Z,101897.59
2023-02-17T05:56:51.593Z,101882.88
2023-02-17T06:02:13.536Z,101883.75
2023-02-17T06:07:35.664Z,101874.56
2023-02-17T06:12:57.431Z,101875.53
2023-02-17T06:18:19.193Z,101890.31
2023-02-17T06:23:41.049Z,101884.09
2023-02-17T06:29:02.955Z,101874.06
2023-02-17T06:34:24.751Z,101876.84
2023-02-17T06:39:46.470Z,101880.66
2023-02-17T06:45:08.875Z,101881.91
2023-02-17T06:50:30.731Z,101884.00
2023-02-17T06:55:52.546Z,101887.00
2023-02-17T07:01:23.556Z,101880.66
2023-02-17T07:06:45.324Z,101883.84
2023-02-17T07:12:07.460Z,101873.50
2023-02-17T07:17:29.183Z,101887.25
2023-02-17T07:22:51.053Z,101885.47
2023-02-17T07:28:12.938Z,101889.41
2023-02-17T07:33:35.101Z,101896.69
2023-02-17T07:38:57.126Z,101899.38
2023-02-17T07:44:19.017Z,101886.22
2023-02-17T07:49:40.839Z,101897.28
2023-02-17T07:55:03.035Z,101896.50
2023-02-17T08:00:24.929Z,101905.94
2023-02-17T08:05:48.253Z,101902.31
2023-02-17T08:11:34.797Z,101902.81
2023-02-17T08:16:57.343Z,101895.84
2023-02-17T08:22:19.190Z,101894.56
2023-02-17T08:27:41.026Z,101907.06
2023-02-17T08:33:02.794Z,101924.84
2023-02-17T08:38:24.541Z,101915.72
2023-02-17T08:43:46.342Z,101909.53
2023-02-17T08:49:08.920Z,101916.66
2023-02-17T08:54:31.840Z,101933.69
2023-02-17T08:59:54.251Z,101924.72
2023-02-17T09:05:16.106Z,101925.75
2023-02-17T09:10:38.508Z,101930.59
2023-02-17T09:16:00.593Z,101923.50
2023-02-17T09:21:22.876Z,101922.97
2023-02-17T09:26:44.650Z,101932.91
2023-02-17T09:32:10.104Z,101951.56
2023-02-17T09:37:31.723Z,101943.97
2023-02-17T09:42:53.598Z,101925.22
2023-02-17T09:48:18.466Z,101924.22
2023-02-17T09:53:44.810Z,101929.16
2023-02-17T09:59:15.261Z,101935.81
2023-02-17T10:04:41.901Z,101952.03
2023-02-17T10:10:22.540Z,101950.13
2023-02-17T10:15:51.298Z,101942.88
2023-02-17T10:21:22.253Z,101949.50
2023-02-17T10:27:23.045Z,101940.34
2023-02-17T10:33:03.538Z,101935.88
2023-02-17T10:38:31.825Z,101971.06
2023-02-17T10:43:54.830Z,101986.03
2023-02-17T10:49:45.942Z,101981.53
2023-02-17T10:55:32.385Z,102006.03
2023-02-17T11:00:57.125Z,101995.31
2023-02-17T11:06:22.476Z,102011.56
2023-02-17T11:11:57.610Z,101997.31
2023-02-17T11:17:36.079Z,102000.38
2023-02-17T11:23:14.975Z,101998.22
2023-02-17T11:28:37.155Z,101998.84
2023-02-17T11:33:58.957Z,102004.41
2023-02-17T11:39:22.389Z,102000.16
2023-02-17T11:44:44.221Z,101980.78
2023-02-17T11:50:14.161Z,101988.66
2023-02-17T11:55:50.258Z,101974.31
2023-02-17T12:01:30.936Z,101956.91
2023-02-17T12:07:01.759Z,101967.97
2023-02-17T12:12:36.943Z,101979.22
2023-02-17T12:18:16.163Z,101957.66
2023-02-17T12:24:10.078Z,101975.44
2023-02-17T12:29:43.911Z,101975.50
2023-02-17T12:35:43.112Z,101988.94
2023-02-17T12:41:08.577Z,101991.13
2023-02-17T12:46:35.498Z,101984.22
2023-02-17T12:51:59.894Z,101976.97
2023-02-17T12:57:40.411Z,101993.28
2023-02-17T13:03:04.213Z,101991.03
2023-02-17T13:08:33.803Z,102007.44
2023-02-17T13:13:55.779Z,102007.34
2023-02-17T13:19:29.504Z,102012.81
2023-02-17T13:24:54.028Z,101987.94
2023-02-17T13:30:18.561Z,101999.78
2023-02-17T13:35:40.373Z,102013.56
2023-02-17T13:41:06.511Z,102031.53
2023-02-17T13:46:28.464Z,102051.03
2023-02-17T13:51:50.390Z,102035.72
2023-02-17T13:57:31.088Z,102038.31
2023-02-17T14:03:18.425Z,102039.84
2023-02-17T14:08:42.628Z,102044.16
2023-02-17T14:14:07.872Z,102061.47
2023-02-17T14:19:30.696Z,102089.03
2023-02-17T14:25:12.049Z,102094.19
2023-02-17T14:30:40.294Z,102108.50
2023-02-17T14:36:06.571Z,102121.09
2023-02-17T14:41:29.358Z,102103.19
2023-02-17T14:46:51.154Z,102095.28
2023-02-17T14:52:24.685Z,102087.72
2023-02-17T14:57:46.525Z,102090.84
2023-02-17T15:03:08.279Z,102101.09
2023-02-17T15:08:34.098Z,102086.75
2023-02-17T15:13:56.274Z,102088.28
2023-02-17T15:19:21.048Z,102106.44
2023-02-17T15:24:42.747Z,102110.75
2023-02-17T15:30:06.874Z,102116.75
2023-02-17T15:35:28.929Z,102126.56
2023-02-17T15:40:51.240Z,102136.63
2023-02-17T15:46:19.048Z,102119.16
2023-02-17T15:51:41.011Z,102118.53
2023-02-17T15:57:04.100Z,102130.91
2023-02-17T16:02:26.671Z,102158.22
2023-02-17T16:07:48.697Z,102145.84
2023-02-17T16:13:14.837Z,102130.47
2023-02-17T16:18:38.514Z,102131.34
2023-02-17T16:24:00.594Z,102146.94
2023-02-17T16:29:23.265Z,102155.66
2023-02-17T16:34:45.017Z,102162.91
2023-02-17T16:40:18.246Z,102166.56
2023-02-17T16:46:04.974Z,102169.75
2023-02-17T16:51:27.159Z,102181.50
2023-02-17T16:56:51.914Z,102185.56
2023-02-17T17:02:14.428Z,102188.16
2023-02-17T17:07:37.544Z,102175.78
2023-02-17T17:13:00.687Z,102187.31
2023-02-17T17:18:23.980Z,102215.69
2023-02-17T17:23:50.851Z,102220.41
2023-02-17T17:29:15.521Z,102199.03
2023-02-17T17:34:37.279Z,102233.34
2023-02-17T17:39:59.055Z,102226.84
2023-02-17T17:45:24.536Z,102232.44
2023-02-17T17:50:48.413Z,102234.22
2023-02-17T17:56:23.131Z,102243.06
2023-02-17T18:01:45.973Z,102233.66
2023-02-17T18:07:08.353Z,102235.19
2023-02-17T18:12:30.468Z,102243.38
2023-02-17T18:17:52.992Z,102256.84
2023-02-17T18:23:14.801Z,102252.38
2023-02-17T18:28:36.745Z,102267.19
2023-02-17T18:33:58.586Z,102266.97
2023-02-17T18:39:23.337Z,102263.81
2023-02-17T18:44:45.888Z,102285.22
2023-02-17T18:50:08.533Z,102292.09
2023-02-17T18:55:30.469Z,102298.47
2023-02-17T19:00:52.272Z,102278.41
2023-02-17T19:06:17.158Z,102287.38
2023-02-17T19:11:38.967Z,102304.03
2023-02-17T19:17:00.806Z,102314.91
2023-02-17T19:22:23.103Z,102311.94
2023-02-17T19:27:45.111Z,102310.84
2023-02-17T19:33:06.788Z,102321.50
2023-02-17T19:38:30.249Z,102329.41
2023-02-17T19:43:51.980Z,102331.81
2023-02-17T19:49:13.793Z,102325.19
2023-02-17T19:54:35.550Z,102316.13
2023-02-17T19:59:57.681Z,102333.72
2023-02-17T20:05:19.398Z,102329.06
2023-02-17T20:10:41.312Z,102334.66
2023-02-17T20:16:07.836Z,102334.03
2023-02-17T20:21:31.932Z,102342.38
2023-02-17T20:26:53.808Z,102343.13
2023-02-17T20:32:15.719Z,102344.50
2023-02-17T20:37:37.572Z,102337.38
2023-02-17T20:43:00.443Z,102347.69
2023-02-17T20:48:27.642Z,102345.13
2023-02-17T20:53:49.906Z,102354.78
2023-02-17T20:59:13.168Z,102351.22
2023-02-17T21:04:34.969Z,102353.25
2023-02-17T21:09:56.960Z,102339.84
2023-02-17T21:15:18.925Z,102342.06
2023-02-17T21:20:40.749Z,102338.78
2023-02-17T21:26:02.512Z,102336.75
2023-02-17T21:31:27.039Z,102344.31
2023-02-17T21:36:48.937Z,102337.88
2023-02-17T21:42:10.714Z,102332.63
2023-02-17T21:47:33.352Z,102336.53
2023-02-17T21:52:55.097Z,102336.56
2023-02-17T21:58:16.899Z,102342.59
2023-02-17T22:03:38.704Z,102337.47
2023-02-17T22:09:00.722Z,102331.72
2023-02-17T22:14:22.951Z,102319.38
2023-02-17T22:19:44.816Z,102329.22
2023-02-17T22:25:06.660Z,102318.94
2023-02-17T22:30:28.758Z,102324.78
2023-02-17T22:36:17.180Z,102334.66
2023-02-17T22:41:39.597Z,102330.84
2023-02-17T22:47:01.425Z,102332.81
2023-02-17T22:52:23.126Z,102321.31
2023-02-17T22:57:45.077Z,102314.72
2023-02-17T23:03:07.022Z,102316.84
2023-02-17T23:08:28.958Z,102314.50
2023-02-17T23:13:50.686Z,102324.56
2023-02-17T23:19:16.062Z,102324.16
2023-02-17T23:24:38.135Z,102305.38
2023-02-17T23:29:59.927Z,102300.50
2023-02-17T23:35:21.754Z,102317.59
2023-02-17T23:40:47.316Z,102319.94
2023-02-17T23:46:09.418Z,102305.03
2023-02-17T23:51:31.327Z,102278.53
2023-02-17T23:56:53.080Z,102290.94
